createdAt,value
2018-07-08T00:02:06.996Z,95481.44
2018-07-08T00:05:11.935Z,95479.70
2018-07-08T00:08:16.261Z,95475.31
2018-07-08T00:11:20.616Z,95469.45
2018-07-08T00:14:25.019Z,95467.89
2018-07-08T00:17:29.396Z,95469.11
2018-07-08T00:20:33.698Z,95473.31
2018-07-08T00:23:38.190Z,95475.99
2018-07-08T00:26:42.626Z,95474.25
2018-07-08T00:29:47.026Z,95464.00
2018-07-08T00:32:51.666Z,95466.41
2018-07-08T00:35:56.033Z,95467.09
2018-07-08T00:39:00.310Z,95468.08
2018-07-08T00:42:04.617Z,95460.17
2018-07-08T00:45:08.903Z,95460.76
2018-07-08T00:48:13.320Z,95461.03
2018-07-08T00:51:17.675Z,95459.45
2018-07-08T00:54:22.081Z,95458.68
2018-07-08T00:57:26.399Z,95457.69
2018-07-08T01:00:38.956Z,95455.15
2018-07-08T01:03:43.257Z,95455.10
2018-07-08T01:06:47.731Z,95453.09
2018-07-08T01:09:52.171Z,95454.59
2018-07-08T01:12:56.624Z,95452.52
2018-07-08T01:16:00.974Z,95457.55
2018-07-08T01:19:06.052Z,95462.95
2018-07-08T01:22:10.373Z,95455.81
2018-07-08T01:25:16.882Z,95457.70
2018-07-08T01:28:21.295Z,95459.38
2018-07-08T01:31:27.066Z,95458.16
2018-07-08T01:34:31.374Z,95459.94
2018-07-08T01:37:35.935Z,95454.03
2018-07-08T01:40:40.369Z,95450.65
2018-07-08T01:43:44.694Z,95449.97
2018-07-08T01:46:48.968Z,95444.72
2018-07-08T01:49:53.498Z,95447.39
2018-07-08T01:52:57.791Z,95441.60
2018-07-08T01:56:02.264Z,95446.84
2018-07-08T01:59:06.305Z,95447.78
2018-07-08T02:02:10.585Z,95446.28
2018-07-08T02:05:14.846Z,95441.33
2018-07-08T02:08:19.256Z,95439.92
2018-07-08T02:11:24.665Z,95447.39
2018-07-08T02:14:29.830Z,95439.70
2018-07-08T02:17:34.390Z,95441.48
2018-07-08T02:20:38.996Z,95442.11
2018-07-08T02:23:43.300Z,95434.41
2018-07-08T02:26:49.231Z,95442.55
2018-07-08T02:29:53.769Z,95439.20
2018-07-08T02:32:58.082Z,95440.44
2018-07-08T02:36:02.721Z,95437.32
2018-07-08T02:39:08.219Z,95431.36
2018-07-08T02:42:12.693Z,95436.30
2018-07-08T02:45:17.581Z,95436.08
2018-07-08T02:48:21.957Z,95428.73
2018-07-08T02:51:26.978Z,95434.69
2018-07-08T02:54:31.428Z,95434.52
2018-07-08T02:57:35.742Z,95431.24
2018-07-08T03:00:40.090Z,95430.78
2018-07-08T03:03:45.156Z,95437.03
2018-07-08T03:06:49.844Z,95436.77
2018-07-08T03:09:54.183Z,95436.30
2018-07-08T03:12:58.509Z,95439.54
2018-07-08T03:16:02.866Z,95435.98
2018-07-08T03:19:07.254Z,95443.67
2018-07-08T03:22:11.727Z,95439.31
2018-07-08T03:25:16.423Z,95443.16
2018-07-08T03:28:20.746Z,95446.95
2018-07-08T03:31:25.162Z,95443.64
2018-07-08T03:34:29.533Z,95447.99
2018-07-08T03:37:33.822Z,95450.29
2018-07-08T03:40:38.204Z,95445.69
2018-07-08T03:43:42.523Z,95445.91
2018-07-08T03:46:46.847Z,95445.06
2018-07-08T03:49:51.457Z,95446.09
2018-07-08T03:52:55.942Z,95449.39
2018-07-08T03:56:00.225Z,95448.72
2018-07-08T03:59:04.823Z,95450.95
2018-07-08T04:02:09.148Z,95454.06
2018-07-08T04:05:13.800Z,95457.36
2018-07-08T04:08:18.319Z,95451.39
2018-07-08T04:11:22.803Z,95448.13
2018-07-08T04:14:28.201Z,95451.80
2018-07-08T04:17:33.743Z,95456.55
2018-07-08T04:20:39.101Z,95459.09
2018-07-08T04:23:43.562Z,95460.58
2018-07-08T04:26:48.098Z,95456.84
2018-07-08T04:29:53.221Z,95460.61
2018-07-08T04:32:58.481Z,95456.19
2018-07-08T04:36:03.088Z,95455.67
2018-07-08T04:39:08.728Z,95448.97
2018-07-08T04:42:13.420Z,95454.20
2018-07-08T04:45:18.208Z,95460.00
2018-07-08T04:48:23.133Z,95456.67
2018-07-08T04:51:27.840Z,95460.42
2018-07-08T04:54:32.492Z,95458.87
2018-07-08T04:57:37.334Z,95459.13
2018-07-08T05:00:42.220Z,95462.72
2018-07-08T05:03:46.846Z,95459.72
2018-07-08T05:06:51.333Z,95458.34
2018-07-08T05:09:57.512Z,95461.04
2018-07-08T05:13:01.980Z,95468.00
2018-07-08T05:16:06.688Z,95464.80
2018-07-08T05:19:11.295Z,95469.94
2018-07-08T05:22:15.994Z,95459.98
2018-07-08T05:25:20.329Z,95462.97
2018-07-08T05:28:24.745Z,95467.27
2018-07-08T05:31:29.055Z,95464.50
2018-07-08T05:34:34.260Z,95463.36
2018-07-08T05:37:38.789Z,95471.89
2018-07-08T05:40:43.133Z,95469.34
2018-07-08T05:43:47.561Z,95472.38
2018-07-08T05:46:51.857Z,95481.60
2018-07-08T05:49:56.990Z,95476.38
2018-07-08T05:53:01.395Z,95480.36
2018-07-08T05:56:06.386Z,95475.60
2018-07-08T05:59:10.923Z,95475.24
2018-07-08T06:02:15.789Z,95468.02
2018-07-08T06:05:20.214Z,95463.35
2018-07-08T06:08:24.708Z,95463.63
2018-07-08T06:11:29.210Z,95456.17
2018-07-08T06:14:33.615Z,95463.04
2018-07-08T06:17:38.240Z,95467.89
2018-07-08T06:20:42.631Z,95460.86
2018-07-08T06:23:46.939Z,95469.55
2018-07-08T06:26:51.245Z,95465.89
2018-07-08T06:29:55.572Z,95461.91
2018-07-08T06:33:00.074Z,95458.36
2018-07-08T06:36:04.642Z,95457.81
2018-07-08T06:39:09.398Z,95450.47
2018-07-08T06:42:13.716Z,95452.81
2018-07-08T06:45:17.997Z,95457.80
2018-07-08T06:48:22.843Z,95453.17
2018-07-08T06:51:27.149Z,95461.47
2018-07-08T06:54:31.220Z,95457.04
2018-07-08T06:57:35.696Z,95464.77
2018-07-08T07:00:39.831Z,95466.30
2018-07-08T07:03:44.350Z,95463.38
2018-07-08T07:06:48.948Z,95464.84
2018-07-08T07:09:53.400Z,95470.84
2018-07-08T07:12:57.727Z,95459.13
2018-07-08T07:16:02.313Z,95457.87
2018-07-08T07:19:07.392Z,95459.68
2018-07-08T07:22:11.697Z,95461.84
2018-07-08T07:25:16.909Z,95464.33
2018-07-08T07:28:21.405Z,95461.19
2018-07-08T07:31:27.908Z,95446.42
2018-07-08T07:34:32.470Z,95453.91
2018-07-08T07:37:36.905Z,95449.18
2018-07-08T07:40:41.333Z,95447.31
2018-07-08T07:43:45.688Z,95445.23
2018-07-08T07:46:50.258Z,95441.70
2018-07-08T07:49:54.576Z,95445.04
2018-07-08T07:52:59.012Z,95448.27
2018-07-08T07:56:03.409Z,95447.29
2018-07-08T07:59:07.894Z,95446.34
2018-07-08T08:02:12.336Z,95451.56
2018-07-08T08:05:16.845Z,95444.22
2018-07-08T08:08:21.262Z,95445.27
2018-07-08T08:11:26.826Z,95441.98
2018-07-08T08:14:31.729Z,95439.08
2018-07-08T08:17:36.465Z,95439.03
2018-07-08T08:20:40.956Z,95438.50
2018-07-08T08:23:45.348Z,95438.88
2018-07-08T08:26:50.241Z,95440.83
2018-07-08T08:29:55.573Z,95442.70
2018-07-08T08:32:59.963Z,95443.18
2018-07-08T08:36:04.287Z,95443.31
2018-07-08T08:39:08.994Z,95436.15
2018-07-08T08:42:13.796Z,95441.11
2018-07-08T08:45:19.573Z,95428.63
2018-07-08T08:48:24.142Z,95435.23
2018-07-08T08:51:28.784Z,95433.98
2018-07-08T08:54:33.155Z,95440.34
2018-07-08T08:57:37.902Z,95441.51
2018-07-08T09:00:44.920Z,95433.05
2018-07-08T09:03:49.306Z,95431.35
2018-07-08T09:06:54.212Z,95432.31
2018-07-08T09:10:08.510Z,95444.53
2018-07-08T09:13:12.997Z,95437.95
2018-07-08T09:16:20.457Z,95439.78
2018-07-08T09:19:24.956Z,95439.36
2018-07-08T09:22:29.465Z,95437.97
2018-07-08T09:25:34.138Z,95435.06
2018-07-08T09:28:38.432Z,95443.03
2018-07-08T09:31:42.884Z,95442.28
2018-07-08T09:34:47.232Z,95435.97
2018-07-08T09:37:51.586Z,95427.34
2018-07-08T09:40:55.918Z,95428.05
2018-07-08T09:44:00.340Z,95436.15
2018-07-08T09:47:04.844Z,95435.72
2018-07-08T09:50:09.177Z,95432.45
2018-07-08T09:53:13.877Z,95433.34
2018-07-08T09:56:18.762Z,95436.86
2018-07-08T09:59:24.957Z,95432.19
2018-07-08T10:02:29.344Z,95435.36
2018-07-08T10:05:34.184Z,95429.91
2018-07-08T10:08:39.359Z,95429.18
2018-07-08T10:11:43.834Z,95433.59
2018-07-08T10:14:48.311Z,95430.73
2018-07-08T10:17:52.954Z,95426.05
2018-07-08T10:20:57.749Z,95431.86
2018-07-08T10:24:02.340Z,95433.51
2018-07-08T10:27:25.025Z,95429.64
2018-07-08T10:30:29.720Z,95430.56
2018-07-08T10:33:49.701Z,95427.52
2018-07-08T10:36:54.114Z,95416.43
2018-07-08T10:39:58.541Z,95426.36
2018-07-08T10:43:03.869Z,95426.83
2018-07-08T10:46:08.137Z,95422.14
2018-07-08T10:49:12.442Z,95423.73
2018-07-08T10:52:17.154Z,95420.45
2018-07-08T10:55:21.262Z,95417.48
2018-07-08T10:58:25.524Z,95416.27
2018-07-08T11:01:30.147Z,95409.62
2018-07-08T11:04:35.280Z,95413.74
2018-07-08T11:07:40.780Z,95411.11
2018-07-08T11:10:45.600Z,95412.05
2018-07-08T11:13:49.953Z,95412.47
2018-07-08T11:16:54.258Z,95406.95
2018-07-08T11:19:58.753Z,95407.92
2018-07-08T11:23:03.052Z,95413.24
2018-07-08T11:26:07.790Z,95408.73
2018-07-08T11:29:12.105Z,95412.83
2018-07-08T11:32:16.404Z,95410.66
2018-07-08T11:35:20.685Z,95405.02
2018-07-08T11:38:24.964Z,95397.37
2018-07-08T11:41:29.529Z,95383.88
2018-07-08T11:44:33.808Z,95395.93
2018-07-08T11:47:38.464Z,95399.41
2018-07-08T11:50:42.793Z,95395.19
2018-07-08T11:53:47.264Z,95392.97
2018-07-08T11:56:51.624Z,95393.65
2018-07-08T11:59:56.012Z,95393.80
2018-07-08T12:03:00.097Z,95399.64
2018-07-08T12:06:04.439Z,95403.09
2018-07-08T12:09:09.045Z,95397.17
2018-07-08T12:12:14.404Z,95395.73
2018-07-08T12:15:18.704Z,95392.55
2018-07-08T12:18:23.101Z,95394.64
2018-07-08T12:21:28.095Z,95394.34
2018-07-08T12:24:32.483Z,95389.36
2018-07-08T12:27:36.962Z,95387.05
2018-07-08T12:30:41.309Z,95388.52
2018-07-08T12:33:45.678Z,95391.36
2018-07-08T12:36:50.073Z,95387.36
2018-07-08T12:39:55.518Z,95387.74
2018-07-08T12:42:59.851Z,95396.23
2018-07-08T12:46:04.395Z,95392.34
2018-07-08T12:49:08.857Z,95394.55
2018-07-08T12:52:14.379Z,95392.00
2018-07-08T12:55:18.747Z,95389.53
2018-07-08T12:58:23.083Z,95380.00
2018-07-08T13:01:27.696Z,95382.19
2018-07-08T13:04:32.034Z,95388.17
2018-07-08T13:07:36.412Z,95385.33
2018-07-08T13:10:41.452Z,95382.11
2018-07-08T13:13:45.804Z,95382.58
2018-07-08T13:16:50.181Z,95380.45
2018-07-08T13:19:57.256Z,95377.34
2018-07-08T13:23:01.558Z,95377.13
2018-07-08T13:26:05.980Z,95387.76
2018-07-08T13:29:10.445Z,95384.73
2018-07-08T13:32:15.169Z,95368.55
2018-07-08T13:35:19.413Z,95371.53
2018-07-08T13:38:23.803Z,95385.34
2018-07-08T13:41:28.364Z,95379.14
2018-07-08T13:44:32.626Z,95374.72
2018-07-08T13:47:36.954Z,95372.09
2018-07-08T13:50:41.733Z,95365.11
2018-07-08T13:53:46.045Z,95367.30
2018-07-08T13:56:50.642Z,95375.48
2018-07-08T13:59:54.935Z,95368.85
2018-07-08T14:02:59.208Z,95371.73
2018-07-08T14:06:03.577Z,95375.75
2018-07-08T14:09:08.443Z,95372.13
2018-07-08T14:12:12.730Z,95370.13
2018-07-08T14:15:17.034Z,95373.09
2018-07-08T14:18:21.346Z,95371.55
2018-07-08T14:21:25.889Z,95374.09
2018-07-08T14:24:30.214Z,95368.66
2018-07-08T14:27:34.536Z,95366.89
2018-07-08T14:30:38.809Z,95379.89
2018-07-08T14:33:43.085Z,95377.73
2018-07-08T14:36:48.051Z,95378.35
2018-07-08T14:39:52.341Z,95376.27
2018-07-08T14:42:56.673Z,95379.95
2018-07-08T14:46:02.132Z,95381.98
2018-07-08T14:49:06.422Z,95386.09
2018-07-08T14:52:10.672Z,95376.86
2018-07-08T14:55:14.996Z,95383.45
2018-07-08T14:58:19.314Z,95386.17
2018-07-08T15:01:24.034Z,95385.61
2018-07-08T15:04:28.575Z,95380.27
2018-07-08T15:07:32.942Z,95375.33
2018-07-08T15:10:37.263Z,95373.61
2018-07-08T15:13:41.633Z,95375.16
2018-07-08T15:16:46.071Z,95370.12
2018-07-08T15:19:50.473Z,95361.85
2018-07-08T15:22:54.986Z,95361.73
2018-07-08T15:25:59.348Z,95357.16
2018-07-08T15:29:03.676Z,95366.45
2018-07-08T15:32:07.934Z,95355.69
2018-07-08T15:35:12.430Z,95360.91
2018-07-08T15:38:16.734Z,95356.67
2018-07-08T15:41:21.031Z,95365.79
2018-07-08T15:44:25.364Z,95360.15
2018-07-08T15:47:29.679Z,95357.98
2018-07-08T15:50:33.965Z,95364.31
2018-07-08T15:53:39.023Z,95362.64
2018-07-08T15:56:43.301Z,95363.83
2018-07-08T15:59:47.660Z,95359.13
2018-07-08T16:02:52.006Z,95360.88
2018-07-08T16:05:56.315Z,95360.50
2018-07-08T16:09:00.731Z,95352.41
2018-07-08T16:12:05.279Z,95351.77
2018-07-08T16:15:09.863Z,95351.62
2018-07-08T16:18:14.350Z,95347.06
2018-07-08T16:21:18.609Z,95347.55
2018-07-08T16:24:23.039Z,95357.95
2018-07-08T16:27:27.409Z,95353.53
2018-07-08T16:30:31.789Z,95357.66
2018-07-08T16:33:36.323Z,95353.41
2018-07-08T16:36:40.860Z,95357.28
2018-07-08T16:39:45.215Z,95361.30
2018-07-08T16:42:49.516Z,95358.09
2018-07-08T16:45:53.885Z,95354.47
2018-07-08T16:48:58.244Z,95357.98
2018-07-08T16:52:02.680Z,95356.52
2018-07-08T16:55:07.079Z,95358.03
2018-07-08T16:58:11.541Z,95354.73
2018-07-08T17:01:15.856Z,95358.13
2018-07-08T17:04:20.139Z,95350.28
2018-07-08T17:07:24.477Z,95354.69
2018-07-08T17:10:28.853Z,95356.04
2018-07-08T17:13:33.998Z,95361.84
2018-07-08T17:16:38.422Z,95365.27
2018-07-08T17:19:43.534Z,95363.77
2018-07-08T17:22:48.634Z,95363.07
2018-07-08T17:25:53.338Z,95366.50
2018-07-08T17:28:57.641Z,95364.58
2018-07-08T17:32:02.342Z,95373.77
2018-07-08T17:35:07.065Z,95379.14
2018-07-08T17:38:11.380Z,95383.11
2018-07-08T17:41:15.640Z,95391.27
2018-07-08T17:44:20.292Z,95382.66
2018-07-08T17:47:24.796Z,95391.17
2018-07-08T17:50:29.243Z,95397.06
2018-07-08T17:53:33.848Z,95395.52
2018-07-08T17:56:38.831Z,95398.20
2018-07-08T17:59:43.293Z,95402.86
2018-07-08T18:02:47.737Z,95394.53
2018-07-08T18:05:52.328Z,95398.06
2018-07-08T18:08:56.735Z,95400.98
2018-07-08T18:12:01.289Z,95403.49
2018-07-08T18:15:05.893Z,95403.73
2018-07-08T18:18:10.361Z,95398.72
2018-07-08T18:21:16.223Z,95402.59
2018-07-08T18:24:20.786Z,95397.58
2018-07-08T18:27:25.152Z,95399.13
2018-07-08T18:30:29.642Z,95397.80
2018-07-08T18:33:34.086Z,95398.20
2018-07-08T18:36:39.008Z,95402.99
2018-07-08T18:39:44.711Z,95402.81
2018-07-08T18:42:49.242Z,95405.91
2018-07-08T18:45:54.132Z,95406.86
2018-07-08T18:48:58.828Z,95406.86
2018-07-08T18:52:03.236Z,95406.48
2018-07-08T18:55:07.996Z,95410.14
2018-07-08T18:58:12.416Z,95406.86
2018-07-08T19:01:17.633Z,95414.39
2018-07-08T19:04:22.075Z,95410.33
2018-07-08T19:07:26.556Z,95412.04
2018-07-08T19:10:31.057Z,95420.88
2018-07-08T19:13:35.709Z,95418.73
2018-07-08T19:16:41.117Z,95427.98
2018-07-08T19:19:45.561Z,95420.05
2018-07-08T19:22:50.281Z,95419.80
2018-07-08T19:25:54.646Z,95419.95
2018-07-08T19:28:59.070Z,95417.14
2018-07-08T19:32:03.734Z,95418.45
2018-07-08T19:35:08.023Z,95426.14
2018-07-08T19:38:12.384Z,95427.05
2018-07-08T19:41:16.764Z,95431.25
2018-07-08T19:44:21.986Z,95431.38
2018-07-08T19:47:26.416Z,95431.34
2018-07-08T19:50:30.962Z,95429.58
2018-07-08T19:53:35.337Z,95429.48
2018-07-08T19:56:40.493Z,95431.55
2018-07-08T19:59:45.680Z,95438.39
2018-07-08T20:02:50.143Z,95427.13
2018-07-08T20:05:54.637Z,95431.82
2018-07-08T20:08:59.086Z,95433.78
2018-07-08T20:12:03.386Z,95438.71
2018-07-08T20:15:07.698Z,95443.09
2018-07-08T20:18:12.224Z,95435.00
2018-07-08T20:21:16.848Z,95438.22
2018-07-08T20:24:20.978Z,95435.44
2018-07-08T20:27:25.269Z,95439.70
2018-07-08T20:30:29.652Z,95440.84
2018-07-08T20:33:33.999Z,95440.78
2018-07-08T20:36:38.533Z,95443.45
2018-07-08T20:39:42.922Z,95441.25
2018-07-08T20:42:47.291Z,95445.80
2018-07-08T20:45:51.692Z,95441.48
2018-07-08T20:48:56.729Z,95448.98
2018-07-08T20:52:01.266Z,95444.39
2018-07-08T20:55:05.577Z,95446.63
2018-07-08T20:58:09.885Z,95451.74
2018-07-08T21:01:14.156Z,95447.47
2018-07-08T21:04:18.444Z,95447.89
2018-07-08T21:07:22.761Z,95445.56
2018-07-08T21:10:27.085Z,95451.30
2018-07-08T21:13:31.656Z,95447.98
2018-07-08T21:16:35.960Z,95439.26
2018-07-08T21:19:40.431Z,95446.75
2018-07-08T21:22:44.695Z,95447.62
2018-07-08T21:25:48.996Z,95444.91
2018-07-08T21:28:53.363Z,95445.02
2018-07-08T21:31:57.632Z,95443.31
2018-07-08T21:35:01.941Z,95443.33
2018-07-08T21:38:06.817Z,95445.66
2018-07-08T21:41:11.172Z,95443.89
2018-07-08T21:44:15.993Z,95444.81
2018-07-08T21:47:21.502Z,95445.73
2018-07-08T21:50:25.785Z,95439.77
2018-07-08T21:53:30.291Z,95449.81
2018-07-08T21:56:34.599Z,95441.94
2018-07-08T21:59:38.923Z,95440.94
2018-07-08T22:02:45.940Z,95444.28
2018-07-08T22:05:50.241Z,95443.85
2018-07-08T22:08:54.755Z,95442.39
2018-07-08T22:11:59.129Z,95444.09
2018-07-08T22:15:03.482Z,95445.17
2018-07-08T22:18:07.797Z,95449.00
2018-07-08T22:21:12.649Z,95448.22
2018-07-08T22:24:17.390Z,95443.91
2018-07-08T22:27:24.745Z,95447.72
2018-07-08T22:30:29.430Z,95446.59
2018-07-08T22:33:33.924Z,95452.33
2018-07-08T22:36:38.405Z,95454.50
2018-07-08T22:39:42.725Z,95450.25
2018-07-08T22:42:47.245Z,95455.68
2018-07-08T22:45:51.800Z,95449.40
2018-07-08T22:48:56.186Z,95452.00
2018-07-08T22:52:00.749Z,95450.91
2018-07-08T22:55:05.558Z,95453.38
2018-07-08T22:58:09.867Z,95446.19
2018-07-08T23:01:31.637Z,95450.61
2018-07-08T23:04:35.918Z,95449.12
2018-07-08T23:07:41.125Z,95453.76
2018-07-08T23:10:45.424Z,95447.30
2018-07-08T23:13:50.511Z,95444.91
2018-07-08T23:16:54.896Z,95441.70
2018-07-08T23:19:59.521Z,95439.52
2018-07-08T23:23:03.646Z,95444.45
2018-07-08T23:26:08.103Z,95439.78
2018-07-08T23:29:12.456Z,95444.72
2018-07-08T23:32:16.825Z,95436.98
2018-07-08T23:35:21.195Z,95437.71
2018-07-08T23:38:25.637Z,95434.97
2018-07-08T23:41:30.282Z,95437.20
2018-07-08T23:44:34.709Z,95432.19
2018-07-08T23:47:39.048Z,95434.58
2018-07-08T23:50:43.320Z,95428.95
2018-07-08T23:53:48.525Z,95429.34
2018-07-08T23:56:52.845Z,95436.17
2018-07-08T23:59:57.204Z,95431.72
